createdAt,value
2017-05-15T00:01:27.327Z,19.84
2017-05-15T00:03:56.411Z,18.10
2017-05-15T00:06:25.522Z,17.50
2017-05-15T00:08:54.638Z,17.96
2017-05-15T00:11:24.495Z,17.72
2017-05-15T00:13:53.599Z,17.94
2017-05-15T00:16:22.687Z,17.66
2017-05-15T00:18:51.797Z,16.94
2017-05-15T00:21:20.887Z,14.98
2017-05-15T00:23:50.012Z,15.78
2017-05-15T00:26:19.084Z,14.18
2017-05-15T00:28:48.418Z,13.86
2017-05-15T00:31:17.497Z,13.60
2017-05-15T00:33:46.636Z,14.06
2017-05-15T00:36:15.817Z,14.28
2017-05-15T00:38:45.657Z,13.78
2017-05-15T00:41:14.767Z,13.56
2017-05-15T00:43:43.858Z,13.82
2017-05-15T00:46:12.975Z,13.84
2017-05-15T00:48:42.063Z,13.58
2017-05-15T00:51:11.289Z,14.54
2017-05-15T00:53:40.397Z,13.60
2017-05-15T00:56:10.255Z,13.52
2017-05-15T00:58:39.469Z,12.96
2017-05-15T01:01:08.581Z,13.34
2017-05-15T01:03:38.054Z,13.16
2017-05-15T01:06:07.142Z,11.66
2017-05-15T01:08:36.281Z,12.86
2017-05-15T01:11:05.405Z,12.56
2017-05-15T01:13:34.501Z,12.72
2017-05-15T01:16:03.594Z,11.28
2017-05-15T01:18:32.707Z,12.54
2017-05-15T01:21:01.801Z,13.26
2017-05-15T01:23:30.982Z,12.54
2017-05-15T01:26:00.073Z,12.40
2017-05-15T01:28:29.181Z,14.24
2017-05-15T01:30:58.285Z,15.64
2017-05-15T01:33:27.523Z,16.46
2017-05-15T01:35:57.067Z,16.06
2017-05-15T01:38:26.183Z,15.50
2017-05-15T01:40:55.300Z,16.28
2017-05-15T01:43:24.384Z,17.06
2017-05-15T01:45:53.501Z,16.26
2017-05-15T01:48:22.598Z,14.10
2017-05-15T01:50:51.843Z,17.40
2017-05-15T01:53:20.929Z,15.52
2017-05-15T01:55:50.032Z,16.60
2017-05-15T01:58:19.146Z,15.30
2017-05-15T02:00:48.282Z,16.94
2017-05-15T02:03:17.749Z,16.06
2017-05-15T02:05:46.887Z,15.84
2017-05-15T02:08:16.071Z,17.20
2017-05-15T02:10:45.188Z,17.42
2017-05-15T02:13:15.038Z,19.32
2017-05-15T02:15:44.154Z,19.02
2017-05-15T02:18:13.249Z,17.36
2017-05-15T02:20:42.367Z,18.36
2017-05-15T02:23:11.470Z,19.66
2017-05-15T02:25:41.351Z,21.52
2017-05-15T02:28:10.468Z,19.18
2017-05-15T02:30:39.595Z,19.42
2017-05-15T02:33:08.721Z,17.52
2017-05-15T02:35:37.967Z,21.62
2017-05-15T02:38:07.875Z,20.50
2017-05-15T02:40:36.987Z,20.80
2017-05-15T02:43:07.147Z,19.16
2017-05-15T02:45:36.245Z,18.26
2017-05-15T02:48:05.310Z,18.52
2017-05-15T02:50:34.564Z,21.06
2017-05-15T02:53:03.656Z,19.26
2017-05-15T02:55:32.777Z,21.22
2017-05-15T02:58:02.610Z,17.52
2017-05-15T03:00:31.777Z,19.28
2017-05-15T03:03:01.628Z,19.82
2017-05-15T03:05:30.811Z,18.36
2017-05-15T03:07:59.905Z,17.38
2017-05-15T03:10:29.083Z,17.38
2017-05-15T03:12:58.210Z,17.88
2017-05-15T03:15:27.311Z,17.24
2017-05-15T03:17:56.402Z,16.78
2017-05-15T03:20:25.924Z,16.32
2017-05-15T03:22:55.059Z,15.78
2017-05-15T03:25:24.891Z,17.14
2017-05-15T03:27:54.009Z,15.80
2017-05-15T03:30:23.090Z,17.08
2017-05-15T03:32:52.823Z,16.96
2017-05-15T03:35:21.894Z,15.94
2017-05-15T03:37:50.984Z,15.98
2017-05-15T03:40:20.099Z,15.20
2017-05-15T03:42:49.251Z,14.50
2017-05-15T03:45:19.087Z,14.74
2017-05-15T03:47:48.201Z,14.12
2017-05-15T03:50:17.356Z,14.08
2017-05-15T03:52:47.190Z,15.64
2017-05-15T03:55:16.321Z,12.22
2017-05-15T03:57:45.413Z,12.32
2017-05-15T04:00:14.656Z,14.14
2017-05-15T04:02:44.822Z,13.18
2017-05-15T04:05:13.964Z,13.80
2017-05-15T04:07:43.109Z,13.56
2017-05-15T04:10:12.230Z,14.34
2017-05-15T04:12:41.453Z,15.18
2017-05-15T04:15:10.560Z,13.12
2017-05-15T04:17:40.424Z,14.00
2017-05-15T04:20:09.568Z,12.32
2017-05-15T04:22:39.437Z,11.10
2017-05-15T04:25:08.584Z,12.92
2017-05-15T04:27:37.664Z,11.96
2017-05-15T04:30:07.523Z,11.68
2017-05-15T04:32:36.656Z,12.24
2017-05-15T04:35:05.763Z,13.60
2017-05-15T04:37:34.865Z,12.26
2017-05-15T04:40:04.745Z,13.72
2017-05-15T04:42:33.859Z,11.10
2017-05-15T04:45:02.970Z,11.18
2017-05-15T04:47:32.900Z,10.78
2017-05-15T04:50:01.962Z,10.96
2017-05-15T04:52:31.798Z,11.48
2017-05-15T04:55:01.646Z,11.56
2017-05-15T04:57:30.740Z,12.34
2017-05-15T04:59:59.825Z,12.04
2017-05-15T05:02:28.932Z,10.84
2017-05-15T05:04:58.068Z,10.92
2017-05-15T05:07:27.156Z,10.92
2017-05-15T05:09:56.291Z,12.40
2017-05-15T05:12:25.406Z,12.08
2017-05-15T05:14:54.504Z,12.58
2017-05-15T05:17:23.605Z,12.42
2017-05-15T05:20:17.528Z,12.10
2017-05-15T05:23:07.224Z,11.32
2017-05-15T05:25:56.039Z,12.20
2017-05-15T05:28:37.115Z,12.14
2017-05-15T05:31:18.274Z,13.22
2017-05-15T05:33:47.377Z,14.72
2017-05-15T05:36:40.187Z,15.86
2017-05-15T05:39:22.575Z,15.16
2017-05-15T05:42:08.479Z,15.46
2017-05-15T05:44:37.579Z,13.74
2017-05-15T05:47:06.705Z,14.70
2017-05-15T05:49:35.826Z,15.58
2017-05-15T05:52:05.672Z,15.74
2017-05-15T05:54:34.977Z,16.24
2017-05-15T05:57:07.596Z,17.26
2017-05-15T05:59:48.463Z,14.98
2017-05-15T06:02:19.385Z,14.98
2017-05-15T06:05:00.387Z,14.86
2017-05-15T06:07:41.340Z,15.36
2017-05-15T06:10:22.802Z,14.48
2017-05-15T06:13:15.452Z,14.34
2017-05-15T06:15:56.438Z,12.84
2017-05-15T06:18:37.474Z,13.84
2017-05-15T06:21:06.106Z,13.78
2017-05-15T06:23:47.167Z,16.43
2017-05-15T06:26:28.301Z,13.84
2017-05-15T06:28:57.398Z,15.20
2017-05-15T06:31:26.534Z,14.68
2017-05-15T06:33:55.629Z,12.36
2017-05-15T06:36:24.711Z,12.84
2017-05-15T06:39:05.734Z,12.06
2017-05-15T06:41:59.344Z,11.40
2017-05-15T06:44:28.465Z,12.48
2017-05-15T06:46:57.591Z,11.86
2017-05-15T06:49:27.462Z,15.82
2017-05-15T06:51:56.704Z,13.18
2017-05-15T06:54:25.866Z,13.60
2017-05-15T06:56:54.970Z,12.16
2017-05-15T06:59:24.103Z,13.34
2017-05-15T07:01:53.940Z,12.54
2017-05-15T07:04:23.064Z,13.42
2017-05-15T07:06:51.674Z,13.14
2017-05-15T07:09:21.527Z,12.28
2017-05-15T07:11:50.618Z,12.14
2017-05-15T07:14:19.754Z,13.34
2017-05-15T07:16:48.848Z,12.04
2017-05-15T07:19:18.004Z,9.94
2017-05-15T07:21:47.089Z,11.06
2017-05-15T07:24:16.190Z,10.82
2017-05-15T07:26:45.309Z,11.06
2017-05-15T07:29:14.411Z,10.82
2017-05-15T07:31:43.514Z,9.58
2017-05-15T07:34:12.623Z,8.82
2017-05-15T07:36:41.822Z,9.34
2017-05-15T07:39:10.914Z,9.38
2017-05-15T07:41:40.363Z,8.48
2017-05-15T07:44:09.454Z,8.78
2017-05-15T07:46:38.625Z,9.68
2017-05-15T07:49:08.027Z,9.48
2017-05-15T07:51:37.921Z,9.12
2017-05-15T07:54:07.029Z,8.16
2017-05-15T07:56:36.128Z,9.22
2017-05-15T07:59:05.249Z,9.56
2017-05-15T08:01:34.337Z,8.98
2017-05-15T08:04:03.457Z,9.58
2017-05-15T08:06:32.540Z,8.00
2017-05-15T08:09:01.650Z,8.52
2017-05-15T08:11:30.781Z,8.38
2017-05-15T08:14:00.111Z,8.74
2017-05-15T08:16:29.970Z,7.42
2017-05-15T08:18:59.124Z,7.00
2017-05-15T08:21:28.979Z,6.52
2017-05-15T08:23:58.092Z,7.70
2017-05-15T08:26:27.177Z,6.56
2017-05-15T08:28:56.332Z,6.22
2017-05-15T08:31:25.416Z,5.26
2017-05-15T08:33:54.514Z,4.54
2017-05-15T08:36:23.631Z,4.96
2017-05-15T08:38:52.727Z,5.18
2017-05-15T08:41:21.830Z,4.16
2017-05-15T08:43:50.947Z,4.20
2017-05-15T08:46:20.029Z,4.90
2017-05-15T08:48:49.126Z,6.70
2017-05-15T08:51:18.221Z,5.70
2017-05-15T08:53:47.385Z,4.98
2017-05-15T08:56:16.546Z,5.02
2017-05-15T08:58:45.635Z,4.62
2017-05-15T09:01:14.727Z,5.20
2017-05-15T09:03:43.763Z,5.78
2017-05-15T09:06:12.870Z,6.08
2017-05-15T09:08:41.946Z,4.26
2017-05-15T09:11:11.069Z,3.78
2017-05-15T09:13:40.155Z,4.76
2017-05-15T09:16:09.274Z,4.74
2017-05-15T09:18:38.410Z,4.40
2017-05-15T09:21:08.265Z,4.16
2017-05-15T09:23:37.338Z,3.06
2017-05-15T09:26:06.433Z,3.48
2017-05-15T09:28:35.530Z,4.80
2017-05-15T09:31:04.609Z,4.10
2017-05-15T09:33:34.448Z,4.26
2017-05-15T09:36:03.531Z,5.90
2017-05-15T09:38:32.619Z,6.02
2017-05-15T09:41:01.713Z,4.98
2017-05-15T09:43:30.858Z,5.10
2017-05-15T09:45:59.959Z,4.14
2017-05-15T09:48:29.063Z,4.98
2017-05-15T09:50:58.926Z,5.02
2017-05-15T09:53:28.010Z,5.64
2017-05-15T09:55:57.112Z,4.72
2017-05-15T09:58:26.997Z,4.82
2017-05-15T10:00:56.113Z,5.46
2017-05-15T10:03:25.193Z,4.72
2017-05-15T10:05:54.315Z,4.40
2017-05-15T10:08:23.422Z,4.08
2017-05-15T10:10:52.503Z,3.98
2017-05-15T10:13:21.614Z,4.30
2017-05-15T10:15:50.827Z,3.70
2017-05-15T10:18:19.957Z,3.64
2017-05-15T10:20:49.048Z,3.54
2017-05-15T10:23:18.177Z,3.68
2017-05-15T10:25:47.273Z,3.18
2017-05-15T10:28:16.353Z,3.58
2017-05-15T10:30:45.756Z,3.06
2017-05-15T10:33:14.910Z,3.38
2017-05-15T10:35:43.973Z,3.30
2017-05-15T10:38:13.074Z,3.84
2017-05-15T10:40:42.180Z,1.88
2017-05-15T10:43:11.493Z,2.64
2017-05-15T10:45:40.591Z,2.54
2017-05-15T10:48:09.894Z,2.26
2017-05-15T10:50:38.968Z,2.38
2017-05-15T10:53:08.074Z,2.50
2017-05-15T10:55:38.089Z,1.72
2017-05-15T10:58:07.211Z,2.34
2017-05-15T11:00:36.303Z,2.54
2017-05-15T11:03:05.382Z,2.76
2017-05-15T11:05:35.244Z,2.46
2017-05-15T11:08:04.326Z,2.58
2017-05-15T11:10:33.453Z,2.78
2017-05-15T11:13:02.568Z,1.80
2017-05-15T11:15:31.654Z,2.50
2017-05-15T11:18:00.764Z,1.82
2017-05-15T11:20:29.827Z,2.14
2017-05-15T11:22:58.953Z,2.22
2017-05-15T11:25:28.771Z,1.92
2017-05-15T11:27:58.634Z,1.96
2017-05-15T11:30:27.723Z,1.64
2017-05-15T11:32:56.816Z,1.72
2017-05-15T11:35:26.298Z,1.52
2017-05-15T11:37:55.470Z,1.60
2017-05-15T11:40:24.531Z,1.14
2017-05-15T11:42:53.696Z,1.16
2017-05-15T11:45:22.817Z,1.00
2017-05-15T11:47:51.931Z,1.78
2017-05-15T11:50:21.095Z,2.00
2017-05-15T11:52:50.218Z,2.04
2017-05-15T11:55:19.382Z,1.50
2017-05-15T11:57:48.554Z,1.82
2017-05-15T12:00:18.408Z,1.82
2017-05-15T12:02:47.956Z,1.64
2017-05-15T12:05:17.773Z,2.18
2017-05-15T12:07:47.645Z,1.84
2017-05-15T12:10:16.897Z,2.30
2017-05-15T12:12:46.043Z,2.10
2017-05-15T12:15:15.207Z,2.48
2017-05-15T12:17:44.340Z,2.30
2017-05-15T12:20:13.425Z,1.80
2017-05-15T12:22:42.552Z,1.52
2017-05-15T12:25:12.382Z,1.66
2017-05-15T12:27:41.490Z,1.88
2017-05-15T12:30:10.583Z,2.08
2017-05-15T12:32:39.691Z,1.86
2017-05-15T12:35:08.789Z,1.40
2017-05-15T12:37:37.899Z,1.18
2017-05-15T12:40:06.990Z,1.58
2017-05-15T12:42:36.062Z,1.58
2017-05-15T12:45:05.163Z,1.78
2017-05-15T12:47:34.245Z,1.64
2017-05-15T12:50:03.346Z,2.16
2017-05-15T12:52:32.412Z,1.86
2017-05-15T12:55:01.771Z,2.00
2017-05-15T12:57:30.953Z,1.58
2017-05-15T13:00:00.034Z,1.64
2017-05-15T13:02:29.128Z,1.48
2017-05-15T13:04:58.213Z,1.80
2017-05-15T13:07:27.453Z,1.96
2017-05-15T13:09:56.552Z,1.68
2017-05-15T13:12:25.638Z,2.08
2017-05-15T13:14:54.761Z,1.74
2017-05-15T13:17:24.587Z,1.82
2017-05-15T13:19:54.424Z,2.22
2017-05-15T13:22:23.494Z,1.84
2017-05-15T13:24:52.601Z,1.90
2017-05-15T13:27:21.705Z,1.70
2017-05-15T13:29:50.776Z,1.84
2017-05-15T13:32:20.627Z,2.00
2017-05-15T13:34:49.681Z,2.54
2017-05-15T13:37:19.528Z,2.06
2017-05-15T13:39:49.311Z,2.12
2017-05-15T13:42:18.448Z,1.82
2017-05-15T13:44:47.524Z,1.30
2017-05-15T13:47:16.601Z,1.42
2017-05-15T13:49:45.703Z,1.58
2017-05-15T13:52:14.841Z,1.38
2017-05-15T13:54:43.932Z,1.54
2017-05-15T13:57:13.021Z,1.46
2017-05-15T13:59:42.118Z,1.68
2017-05-15T14:02:11.293Z,1.92
2017-05-15T14:04:40.781Z,1.60
2017-05-15T14:07:09.946Z,1.70
2017-05-15T14:09:39.091Z,1.60
2017-05-15T14:12:08.201Z,1.88
2017-05-15T14:14:37.279Z,1.70
2017-05-15T14:17:06.474Z,1.50
2017-05-15T14:19:35.559Z,1.50
2017-05-15T14:22:04.644Z,1.72
2017-05-15T14:24:33.862Z,1.76
2017-05-15T14:27:02.939Z,1.32
2017-05-15T14:29:32.052Z,1.70
2017-05-15T14:32:01.147Z,1.62
2017-05-15T14:34:30.305Z,1.62
2017-05-15T14:37:00.180Z,1.74
2017-05-15T14:39:29.797Z,1.42
2017-05-15T14:41:58.891Z,1.88
2017-05-15T14:44:27.960Z,1.60
2017-05-15T14:46:57.068Z,2.96
2017-05-15T14:49:26.152Z,2.12
2017-05-15T14:51:55.346Z,2.24
2017-05-15T14:54:24.470Z,1.50
2017-05-15T14:56:53.566Z,1.78
2017-05-15T14:59:22.684Z,1.80
2017-05-15T15:01:52.527Z,1.88
2017-05-15T15:04:21.671Z,1.84
2017-05-15T15:06:50.831Z,1.40
2017-05-15T15:09:20.584Z,1.44
2017-05-15T15:11:50.463Z,1.44
2017-05-15T15:14:20.929Z,1.50
2017-05-15T15:16:50.082Z,1.64
2017-05-15T15:19:19.169Z,1.26
2017-05-15T15:21:48.360Z,1.80
2017-05-15T15:24:17.504Z,1.60
2017-05-15T15:26:47.429Z,1.66
2017-05-15T15:29:17.904Z,2.00
2017-05-15T15:31:46.991Z,1.40
2017-05-15T15:34:16.454Z,1.88
2017-05-15T15:36:46.345Z,1.60
2017-05-15T15:39:15.548Z,1.58
2017-05-15T15:41:45.479Z,1.78
2017-05-15T15:44:16.255Z,1.14
2017-05-15T15:46:46.850Z,1.32
2017-05-15T15:49:16.621Z,1.30
2017-05-15T15:51:45.773Z,1.40
2017-05-15T15:54:15.017Z,1.46
2017-05-15T15:56:44.502Z,1.52
2017-05-15T15:59:13.619Z,1.48
2017-05-15T16:01:42.707Z,1.48
2017-05-15T16:04:11.821Z,1.10
2017-05-15T16:06:40.917Z,1.20
2017-05-15T16:09:10.364Z,1.30
2017-05-15T16:11:39.443Z,1.32
2017-05-15T16:14:08.633Z,1.10
2017-05-15T16:16:38.153Z,1.80
2017-05-15T16:19:07.260Z,0.98
2017-05-15T16:21:36.509Z,1.28
2017-05-15T16:24:05.684Z,1.34
2017-05-15T16:26:34.768Z,1.76
2017-05-15T16:29:03.887Z,1.08
2017-05-15T16:31:33.507Z,1.10
2017-05-15T16:34:04.132Z,2.00
2017-05-15T16:36:34.660Z,1.98
2017-05-15T16:39:03.782Z,1.30
2017-05-15T16:41:32.915Z,1.10
2017-05-15T16:44:02.064Z,1.72
2017-05-15T16:46:31.235Z,1.34
2017-05-15T16:49:00.408Z,1.50
2017-05-15T16:51:29.623Z,2.12
2017-05-15T16:53:58.746Z,1.80
2017-05-15T16:56:29.014Z,1.34
2017-05-15T16:58:58.170Z,1.20
2017-05-15T17:01:27.989Z,0.94
2017-05-15T17:03:57.130Z,1.20
2017-05-15T17:06:26.561Z,1.02
2017-05-15T17:08:55.807Z,1.06
2017-05-15T17:11:25.643Z,1.12
2017-05-15T17:13:54.785Z,0.84
2017-05-15T17:16:24.660Z,1.56
2017-05-15T17:18:53.786Z,1.18
2017-05-15T17:21:23.637Z,1.24
2017-05-15T17:23:53.562Z,1.06
2017-05-15T17:26:23.332Z,1.20
2017-05-15T17:28:52.498Z,1.18
2017-05-15T17:31:21.575Z,0.94
2017-05-15T17:33:51.102Z,0.98
2017-05-15T17:36:20.223Z,0.84
2017-05-15T17:38:49.297Z,0.86
2017-05-15T17:41:19.457Z,1.20
2017-05-15T17:43:48.555Z,1.20
2017-05-15T17:46:17.641Z,1.00
2017-05-15T17:48:46.744Z,0.86
2017-05-15T17:51:15.826Z,0.96
2017-05-15T17:53:44.987Z,1.50
2017-05-15T17:56:14.147Z,1.20
2017-05-15T17:58:43.225Z,1.12
2017-05-15T18:01:12.304Z,1.10
2017-05-15T18:03:41.381Z,1.10
2017-05-15T18:06:11.231Z,1.08
2017-05-15T18:08:40.347Z,0.96
2017-05-15T18:11:09.455Z,0.80
2017-05-15T18:13:38.530Z,1.00
2017-05-15T18:16:07.682Z,0.90
2017-05-15T18:18:37.549Z,1.04
2017-05-15T18:21:06.655Z,0.70
2017-05-15T18:23:35.756Z,0.94
2017-05-15T18:26:05.206Z,0.80
2017-05-15T18:28:34.262Z,1.02
2017-05-15T18:31:04.097Z,1.04
2017-05-15T18:33:33.978Z,0.90
2017-05-15T18:36:03.045Z,0.80
2017-05-15T18:38:32.114Z,1.08
2017-05-15T18:41:01.273Z,1.10
2017-05-15T18:43:30.364Z,0.88
2017-05-15T18:46:00.234Z,1.02
2017-05-15T18:48:29.423Z,0.94
2017-05-15T18:50:58.515Z,1.06
2017-05-15T18:53:27.594Z,0.70
2017-05-15T18:55:56.695Z,0.78
2017-05-15T18:58:25.793Z,1.20
2017-05-15T19:00:54.890Z,0.80
2017-05-15T19:03:24.041Z,1.00
2017-05-15T19:05:53.146Z,0.88
2017-05-15T19:08:22.973Z,0.90
2017-05-15T19:10:52.101Z,0.80
2017-05-15T19:13:21.217Z,1.30
2017-05-15T19:15:50.323Z,1.36
2017-05-15T19:18:19.446Z,0.98
2017-05-15T19:20:49.271Z,1.10
2017-05-15T19:23:18.367Z,0.90
2017-05-15T19:25:47.466Z,1.20
2017-05-15T19:28:17.009Z,1.20
2017-05-15T19:30:46.106Z,0.64
2017-05-15T19:33:15.194Z,0.70
2017-05-15T19:35:44.289Z,0.70
2017-05-15T19:38:13.416Z,0.88
2017-05-15T19:40:42.611Z,0.92
2017-05-15T19:43:11.946Z,0.50
2017-05-15T19:45:41.214Z,1.06
2017-05-15T19:48:11.083Z,0.90
2017-05-15T19:50:40.223Z,1.14
2017-05-15T19:53:10.104Z,1.06
2017-05-15T19:55:39.206Z,1.00
2017-05-15T19:58:08.418Z,0.82
2017-05-15T20:00:37.503Z,1.14
2017-05-15T20:03:06.888Z,1.16
2017-05-15T20:05:35.965Z,1.10
2017-05-15T20:08:05.045Z,1.92
2017-05-15T20:10:34.159Z,2.06
2017-05-15T20:13:03.262Z,1.40
2017-05-15T20:15:32.363Z,1.66
2017-05-15T20:18:01.474Z,1.30
2017-05-15T20:20:30.571Z,1.20
2017-05-15T20:23:00.028Z,1.18
2017-05-15T20:25:29.205Z,1.10
2017-05-15T20:27:58.287Z,1.06
2017-05-15T20:30:27.396Z,1.22
2017-05-15T20:33:01.269Z,1.36
2017-05-15T20:35:38.294Z,1.00
2017-05-15T20:38:09.093Z,0.86
2017-05-15T20:40:39.010Z,1.26
2017-05-15T20:43:08.860Z,1.10
2017-05-15T20:45:38.758Z,1.36
2017-05-15T20:48:08.095Z,1.36
2017-05-15T20:50:37.174Z,1.20
2017-05-15T20:53:06.252Z,1.48
2017-05-15T20:55:35.670Z,1.42
2017-05-15T20:58:04.760Z,1.30
2017-05-15T21:00:33.871Z,1.20
2017-05-15T21:03:02.973Z,1.22
2017-05-15T21:05:32.039Z,1.30
2017-05-15T21:08:01.193Z,1.30
2017-05-15T21:10:30.273Z,1.50
2017-05-15T21:12:59.372Z,1.10
2017-05-15T21:15:28.455Z,1.20
2017-05-15T21:17:57.914Z,1.20
2017-05-15T21:20:27.232Z,1.54
2017-05-15T21:22:56.294Z,1.54
2017-05-15T21:25:26.132Z,1.40
2017-05-15T21:27:55.233Z,1.16
2017-05-15T21:30:24.326Z,1.72
2017-05-15T21:32:53.415Z,1.08
2017-05-15T21:35:22.516Z,1.30
2017-05-15T21:37:51.615Z,1.40
2017-05-15T21:40:20.714Z,1.40
2017-05-15T21:42:49.868Z,1.24
2017-05-15T21:45:19.713Z,1.36
2017-05-15T21:47:48.958Z,1.16
2017-05-15T21:50:18.160Z,1.38
2017-05-15T21:52:47.258Z,1.62
2017-05-15T21:55:17.108Z,1.18
2017-05-15T21:57:46.177Z,1.94
2017-05-15T22:00:16.042Z,1.42
2017-05-15T22:02:45.218Z,1.90
2017-05-15T22:05:15.035Z,2.28
2017-05-15T22:07:44.170Z,2.24
2017-05-15T22:10:13.240Z,2.10
2017-05-15T22:12:42.385Z,1.88
2017-05-15T22:15:11.462Z,2.00
2017-05-15T22:17:41.303Z,2.14
2017-05-15T22:20:10.381Z,1.80
2017-05-15T22:22:40.211Z,2.68
2017-05-15T22:25:09.326Z,2.46
2017-05-15T22:27:38.405Z,2.24
2017-05-15T22:30:07.524Z,2.46
2017-05-15T22:32:36.603Z,2.30
2017-05-15T22:35:05.720Z,2.66
2017-05-15T22:37:34.805Z,2.28
2017-05-15T22:40:04.293Z,2.20
2017-05-15T22:42:33.364Z,2.68
2017-05-15T22:45:02.462Z,2.52
2017-05-15T22:47:31.576Z,2.94
2017-05-15T22:50:00.657Z,3.80
2017-05-15T22:52:29.772Z,3.66
2017-05-15T22:54:58.849Z,3.98
2017-05-15T22:57:27.956Z,3.14
2017-05-15T22:59:57.042Z,3.50
2017-05-15T23:02:26.118Z,3.80
2017-05-15T23:04:55.216Z,4.46
2017-05-15T23:07:24.360Z,3.84
2017-05-15T23:09:53.554Z,4.88
2017-05-15T23:12:22.674Z,4.04
2017-05-15T23:14:51.772Z,5.30
2017-05-15T23:17:23.004Z,5.16
2017-05-15T23:19:54.303Z,4.64
2017-05-15T23:22:23.385Z,5.08
2017-05-15T23:24:52.700Z,4.62
2017-05-15T23:27:21.778Z,6.08
2017-05-15T23:29:50.970Z,4.72
2017-05-15T23:32:20.083Z,4.34
2017-05-15T23:34:49.239Z,5.02
2017-05-15T23:37:18.348Z,4.88
2017-05-15T23:39:48.193Z,4.08
2017-05-15T23:42:17.286Z,4.62
2017-05-15T23:44:46.374Z,4.74
2017-05-15T23:47:15.466Z,5.48
2017-05-15T23:49:44.566Z,5.02
2017-05-15T23:52:13.654Z,5.48
2017-05-15T23:54:42.791Z,5.84
2017-05-15T23:57:11.843Z,5.66
2017-05-15T23:59:40.937Z,5.30
